Time;durP1;ratioP1;P1;durP2;ratioP2;P2;SDS_P1;SDS_P2;PMS_P1;PMS_P2;Temp;Humidity;BMP_temperature;BMP_pressure;BME280_temperature;BME280_humidity;BME280_pressure;Samples;Min_cycle;Max_cycle;Signal;HPM_P1;HPM_P2
2020/12/02 00:00:59;;;;;;;19.23;15.47;;;;;;;3.69;87.21;95586.31;5072454;28;20192;-76
2020/12/02 00:03:33;;;;;;;19.03;13.00;;;;;;;3.69;87.58;95582.03;5072704;28;20282;-77
2020/12/02 00:05:59;;;;;;;14.03;11.60;;;;;;;3.73;87.67;95587.66;5071512;28;20201;-77
2020/12/02 00:08:30;;;;;;;14.83;11.97;;;;;;;3.65;87.13;95587.53;5071989;28;20221;-77
2020/12/02 00:10:56;;;;;;;14.07;11.27;;;;;;;3.62;87.37;95586.06;5071977;28;20204;-77
2020/12/02 00:13:26;;;;;;;15.77;12.37;;;;;;;3.47;87.38;95589.91;5072134;28;20197;-77
2020/12/02 00:15:52;;;;;;;13.83;11.70;;;;;;;3.32;87.27;95597.16;5071439;28;20200;-77
2020/12/02 00:18:19;;;;;;;14.50;12.07;;;;;;;3.06;89.10;95598.59;5071510;28;20229;-76
2020/12/02 00:20:45;;;;;;;16.73;13.03;;;;;;;2.98;90.30;95601.75;5071851;28;20298;-77
2020/12/02 00:23:11;;;;;;;15.43;12.73;;;;;;;3.06;90.46;95612.09;5071344;28;20223;-75
2020/12/02 00:25:37;;;;;;;17.67;13.00;;;;;;;3.20;89.78;95594.84;5071679;28;20692;-78
2020/12/02 00:28:05;;;;;;;15.83;12.43;;;;;;;3.30;89.31;95593.13;5091162;23;20848;-76
2020/12/02 00:30:34;;;;;;;15.40;12.43;;;;;;;3.37;88.93;95591.66;5070276;28;20621;-75
2020/12/02 00:33:07;;;;;;;16.47;12.40;;;;;;;3.35;88.94;95588.44;5070556;28;20539;-75
2020/12/02 00:35:33;;;;;;;17.03;12.90;;;;;;;3.34;88.99;95589.38;5070543;28;20564;-75
2020/12/02 00:37:59;;;;;;;17.83;13.20;;;;;;;3.39;88.99;95587.25;5070636;28;20217;-77
2020/12/02 00:40:25;;;;;;;18.43;13.87;;;;;;;3.38;89.07;95589.00;5071963;28;20205;-77
2020/12/02 00:42:51;;;;;;;23.20;15.53;;;;;;;3.40;88.47;95582.03;5071447;28;20225;-77
2020/12/02 00:45:17;;;;;;;20.97;15.30;;;;;;;3.41;88.60;95586.19;5071348;28;20228;-77
2020/12/02 00:47:49;;;;;;;21.23;15.43;;;;;;;3.43;88.56;95580.97;5070943;28;20652;-77
2020/12/02 00:50:15;;;;;;;21.03;15.70;;;;;;;3.41;88.56;95586.19;5071803;28;20571;-77
2020/12/02 00:52:41;;;;;;;23.57;16.40;;;;;;;3.46;88.31;95583.25;5070740;28;20204;-77
2020/12/02 00:55:07;;;;;;;25.57;16.40;;;;;;;3.33;88.25;95583.47;5071585;28;20204;-77
2020/12/02 00:57:35;;;;;;;22.60;16.17;;;;;;;3.17;89.65;95584.94;5070825;28;20230;-77
2020/12/02 01:00:07;;;;;;;23.33;16.73;;;;;;;3.19;89.45;95583.88;5071532;28;20204;-77
2020/12/02 01:02:38;;;;;;;25.63;17.87;;;;;;;2.99;90.75;95583.03;5071094;28;20220;-76
2020/12/02 01:05:06;;;;;;;28.27;19.50;;;;;;;2.83;92.41;95595.44;5071096;28;20667;-77
2020/12/02 01:07:32;;;;;;;28.73;20.67;;;;;;;2.89;91.21;95589.81;5070410;28;20193;-76
2020/12/02 01:09:59;;;;;;;30.30;21.00;;;;;;;2.89;89.65;95579.63;5071659;28;20223;-77
2020/12/02 01:12:25;;;;;;;31.27;22.57;;;;;;;2.96;88.72;95579.94;5071073;28;20694;-76
2020/12/02 01:14:51;;;;;;;29.97;21.13;;;;;;;3.01;88.44;95582.91;5071509;28;20204;-77
2020/12/02 01:17:17;;;;;;;31.27;21.13;;;;;;;3.03;87.48;95589.47;5070885;28;20196;-77
2020/12/02 01:19:44;;;;;;;28.77;21.60;;;;;;;3.02;86.72;95582.78;5071188;28;20224;-77
2020/12/02 01:22:17;;;;;;;27.70;21.43;;;;;;;3.03;86.28;95579.28;5071279;28;20548;-77
2020/12/02 01:24:49;;;;;;;30.20;21.07;;;;;;;3.04;86.95;95585.19;5071604;28;20582;-77
2020/12/02 01:27:20;;;;;;;29.60;22.03;;;;;;;2.98;86.79;95581.41;5070841;28;20204;-77
2020/12/02 01:29:49;;;;;;;29.70;22.47;;;;;;;2.94;86.51;95577.50;5070646;28;20228;-77
2020/12/02 01:32:15;;;;;;;29.27;22.37;;;;;;;3.00;86.28;95577.00;5070662;28;20205;-76
2020/12/02 01:34:47;;;;;;;28.60;22.33;;;;;;;2.96;86.12;95572.31;5071441;28;20205;-77
2020/12/02 01:37:30;;;;;;;32.70;22.47;;;;;;;2.91;86.59;95571.88;5071966;28;20201;-78
2020/12/02 01:40:04;;;;;;;33.10;22.70;;;;;;;2.95;86.06;95583.41;5074732;28;20197;-76
2020/12/02 01:42:30;;;;;;;28.93;21.27;;;;;;;2.98;86.25;95571.25;5074048;28;20216;-76
2020/12/02 01:44:56;;;;;;;30.07;22.33;;;;;;;2.86;84.75;95571.50;5074489;28;20193;-76
2020/12/02 01:47:36;;;;;;;31.80;23.87;;;;;;;2.89;85.82;95573.75;5074371;28;20223;-77
2020/12/02 01:50:07;;;;;;;28.93;21.77;;;;;;;2.72;86.08;95568.34;5074523;28;20204;-76
2020/12/02 01:52:48;;;;;;;31.77;21.23;;;;;;;2.79;86.05;95576.28;5074387;28;20196;-77
2020/12/02 01:55:19;;;;;;;31.63;21.37;;;;;;;2.77;85.36;95571.31;5074385;28;20291;-77
2020/12/02 01:57:50;;;;;;;30.77;21.73;;;;;;;2.76;85.99;95571.44;5073871;28;20224;-77
2020/12/02 02:00:19;;;;;;;28.83;20.57;;;;;;;2.72;85.85;95565.81;5074125;28;20846;-77
2020/12/02 02:02:57;;;;;;;29.73;20.60;;;;;;;2.69;85.58;95557.66;5074011;28;20231;-76
2020/12/02 02:05:28;;;;;;;31.93;19.67;;;;;;;2.73;85.40;95571.69;5073897;28;20215;-76
2020/12/02 02:07:56;;;;;;;26.93;20.17;;;;;;;2.75;84.39;95565.56;5073939;28;20278;-76
2020/12/02 02:10:31;;;;;;;26.73;19.33;;;;;;;2.71;83.73;95566.75;5073826;28;20197;-77
2020/12/02 02:13:13;;;;;;;26.37;18.97;;;;;;;2.49;83.65;95572.03;5074389;28;20196;-77
2020/12/02 02:15:47;;;;;;;25.60;19.10;;;;;;;2.54;84.24;95577.50;5073726;28;20192;-77
2020/12/02 02:18:17;;;;;;;26.37;19.70;;;;;;;2.56;83.83;95568.03;5074064;28;20239;-77
2020/12/02 02:20:45;;;;;;;23.97;18.03;;;;;;;2.56;83.18;95570.56;5074134;28;20192;-76
2020/12/02 02:23:15;;;;;;;24.13;18.33;;;;;;;2.57;83.15;95574.72;5073461;28;20220;-77
2020/12/02 02:25:42;;;;;;;24.37;18.10;;;;;;;2.62;83.08;95572.59;5073217;28;20200;-76
2020/12/02 02:28:10;;;;;;;23.27;17.73;;;;;;;2.63;82.76;95565.78;5073248;28;20228;-77
2020/12/02 02:30:36;;;;;;;22.70;17.87;;;;;;;2.63;82.73;95574.22;5073411;28;20208;-76
2020/12/02 02:33:02;;;;;;;24.67;18.47;;;;;;;2.58;82.50;95567.91;5073831;28;20205;-76
2020/12/02 02:35:29;;;;;;;23.53;17.83;;;;;;;2.60;82.57;95563.50;5073288;28;20196;-77
2020/12/02 02:37:55;;;;;;;24.20;18.27;;;;;;;2.57;82.67;95563.75;5073453;28;20630;-76
2020/12/02 02:40:21;;;;;;;24.07;18.83;;;;;;;2.52;82.91;95560.78;5073291;28;20283;-77
2020/12/02 02:42:49;;;;;;;27.37;20.07;;;;;;;2.41;82.79;95567.56;5073489;28;20228;-76
2020/12/02 02:45:18;;;;;;;26.23;18.60;;;;;;;2.41;83.41;95562.50;5072675;28;20204;-77
2020/12/02 02:47:45;;;;;;;26.70;18.97;;;;;;;2.37;83.54;95563.66;5073335;28;20204;-77
2020/12/02 02:50:14;;;;;;;29.57;19.87;;;;;;;2.17;82.88;95561.16;5073860;28;20197;-77
2020/12/02 02:52:41;;;;;;;24.27;18.90;;;;;;;1.95;82.78;95557.81;5074105;28;20197;-77
2020/12/02 02:55:11;;;;;;;25.13;19.30;;;;;;;1.72;84.95;95562.25;5073155;28;20201;-77
2020/12/02 02:57:37;;;;;;;24.93;18.53;;;;;;;1.61;84.93;95562.28;5073097;28;20200;-77
2020/12/02 03:00:06;;;;;;;23.63;18.10;;;;;;;1.63;85.26;95559.63;5073662;28;20221;-76
2020/12/02 03:02:33;;;;;;;23.23;17.97;;;;;;;1.77;85.40;95549.16;5073024;28;20212;-76
2020/12/02 03:04:59;;;;;;;24.40;17.83;;;;;;;1.64;83.98;95546.81;5072438;28;20558;-76
2020/12/02 03:07:26;;;;;;;25.33;18.07;;;;;;;1.61;84.81;95544.50;5073141;28;20200;-77
2020/12/02 03:09:51;;;;;;;24.47;18.20;;;;;;;1.70;84.93;95553.94;5072095;28;20228;-77
2020/12/02 03:12:18;;;;;;;24.90;17.57;;;;;;;1.84;85.32;95549.47;5072684;28;20204;-77
2020/12/02 03:14:44;;;;;;;23.83;17.80;;;;;;;1.80;84.53;95550.66;5072422;28;20255;-77
2020/12/02 03:17:13;;;;;;;24.00;18.23;;;;;;;1.66;83.94;95555.09;5072426;28;20226;-76
2020/12/02 03:19:48;;;;;;;24.83;17.97;;;;;;;1.78;84.73;95542.34;5072277;28;20227;-77
2020/12/02 03:22:14;;;;;;;24.30;18.10;;;;;;;1.62;83.30;95540.25;5072771;28;20200;-75
2020/12/02 03:24:43;;;;;;;24.43;18.70;;;;;;;1.73;84.45;95545.28;5072402;28;20223;-75
2020/12/02 03:27:09;;;;;;;25.00;17.93;;;;;;;1.83;83.11;95542.78;5072452;28;20204;-75
2020/12/02 03:29:35;;;;;;;23.67;18.50;;;;;;;1.90;83.31;95539.66;5072342;28;20726;-77
2020/12/02 03:32:01;;;;;;;26.97;18.07;;;;;;;1.84;82.81;95539.31;5072563;28;20192;-76
2020/12/02 03:34:28;;;;;;;25.40;18.47;;;;;;;1.88;82.72;95549.13;5073111;28;20201;-76
2020/12/02 03:36:54;;;;;;;27.00;19.63;;;;;;;1.93;82.23;95556.34;5072420;28;20207;-76
2020/12/02 03:39:20;;;;;;;23.47;18.13;;;;;;;1.98;81.85;95555.03;5072820;28;20224;-77
2020/12/02 03:41:46;;;;;;;26.73;18.57;;;;;;;2.02;80.81;95558.13;5072377;28;20284;-76
2020/12/02 03:44:12;;;;;;;26.63;18.97;;;;;;;2.06;80.89;95551.88;5072433;28;20228;-77
2020/12/02 03:46:39;;;;;;;26.67;18.97;;;;;;;2.04;79.82;95554.56;5071583;28;20200;-77
2020/12/02 03:49:06;;;;;;;25.50;18.13;;;;;;;2.03;79.82;95547.84;5071618;28;20231;-76
2020/12/02 03:51:33;;;;;;;26.60;18.83;;;;;;;2.03;79.86;95550.41;5071397;28;20568;-77
2020/12/02 03:54:00;;;;;;;25.50;18.60;;;;;;;1.95;78.47;95551.94;5071433;28;20225;-76
2020/12/02 03:56:27;;;;;;;24.17;18.13;;;;;;;1.92;80.18;95552.22;5070987;28;20200;-76
2020/12/02 03:58:53;;;;;;;25.30;19.07;;;;;;;1.91;79.83;95553.13;5071759;28;20217;-76
2020/12/02 04:01:19;;;;;;;26.30;18.70;;;;;;;1.96;79.75;95544.19;5070398;28;20204;-77
2020/12/02 04:03:45;;;;;;;25.97;18.73;;;;;;;2.02;79.53;95546.25;5071231;28;20221;-76
2020/12/02 04:06:11;;;;;;;26.10;18.57;;;;;;;2.05;79.19;95552.81;5071073;28;20200;-76
2020/12/02 04:08:38;;;;;;;25.07;17.83;;;;;;;1.99;78.66;95548.22;5070944;28;20738;-76
2020/12/02 04:11:05;;;;;;;25.27;17.87;;;;;;;2.07;78.29;95546.69;5071657;28;20572;-79
2020/12/02 04:13:31;;;;;;;22.90;17.17;;;;;;;2.08;78.24;95543.22;5071180;28;20193;-79
2020/12/02 04:15:57;;;;;;;24.27;17.63;;;;;;;1.78;78.38;95544.88;5070847;28;20201;-79
2020/12/02 04:18:24;;;;;;;27.80;19.50;;;;;;;1.58;78.61;95544.75;5070920;28;20216;-78
2020/12/02 04:20:50;;;;;;;26.20;18.97;;;;;;;1.56;79.45;95535.66;5071213;28;20694;-79
2020/12/02 04:23:15;;;;;;;25.40;18.83;;;;;;;1.57;80.04;95527.91;5070734;28;20252;-76
2020/12/02 04:25:42;;;;;;;25.80;18.73;;;;;;;1.69;80.17;95526.16;5071081;28;20257;-76
2020/12/02 04:28:08;;;;;;;24.80;18.23;;;;;;;1.72;79.54;95525.91;5070569;28;20224;-79
2020/12/02 04:30:34;;;;;;;25.77;18.57;;;;;;;1.74;79.31;95526.56;5071125;28;20263;-79
2020/12/02 04:33:00;;;;;;;23.83;18.07;;;;;;;1.79;79.01;95528.72;5071003;28;20197;-78
2020/12/02 04:35:26;;;;;;;26.80;19.13;;;;;;;1.63;78.82;95532.50;5070905;28;20694;-78
2020/12/02 04:37:52;;;;;;;29.20;19.53;;;;;;;1.33;79.96;95524.81;5070576;28;20213;-79
2020/12/02 04:40:23;;;;;;;26.87;18.47;;;;;;;1.13;81.85;95526.38;5071002;28;20204;-79
2020/12/02 04:42:55;;;;;;;29.00;19.33;;;;;;;1.09;82.61;95524.22;5071277;28;20228;-79
2020/12/02 04:45:21;;;;;;;33.93;21.17;;;;;;;1.00;82.66;95523.19;5070249;28;20691;-79
2020/12/02 04:47:47;;;;;;;31.00;21.30;;;;;;;1.13;82.78;95521.31;5070975;28;20208;-79
2020/12/02 04:50:18;;;;;;;29.30;18.70;;;;;;;1.26;82.27;95524.50;5070825;28;20650;-79
2020/12/02 04:52:57;;;;;;;31.07;19.50;;;;;;;1.29;81.61;95524.25;5070110;28;20200;-79
2020/12/02 04:55:23;;;;;;;28.47;18.93;;;;;;;1.37;80.86;95521.91;5070655;28;20193;-79
2020/12/02 04:57:49;;;;;;;28.53;18.57;;;;;;;1.35;80.03;95517.88;5071087;28;20258;-79
2020/12/02 05:00:27;;;;;;;26.90;18.47;;;;;;;1.62;96.17;95513.13;5071363;28;20200;-78
2020/12/02 05:02:53;;;;;;;28.90;18.47;;;;;;;1.78;82.91;95515.25;5070857;28;20220;-79
2020/12/02 05:05:21;;;;;;;27.17;18.63;;;;;;;1.46;81.01;95522.09;5070371;28;20197;-79
2020/12/02 05:07:47;;;;;;;27.97;17.23;;;;;;;1.11;82.02;95517.28;5071095;28;20686;-79
2020/12/02 05:10:15;;;;;;;26.57;17.20;;;;;;;0.74;83.56;95514.28;5070614;28;20189;-79
2020/12/02 05:12:44;;;;;;;29.53;17.03;;;;;;;0.70;85.05;95506.09;5073214;28;20556;-79
2020/12/02 05:15:20;;;;;;;23.20;16.33;;;;;;;0.78;85.25;95503.75;5074441;28;20288;-79
2020/12/02 05:18:02;;;;;;;26.97;17.63;;;;;;;0.83;84.58;95499.16;5074246;28;20219;-79
2020/12/02 05:20:28;;;;;;;29.23;19.17;;;;;;;0.77;84.17;95506.44;5075188;28;20197;-79
2020/12/02 05:22:54;;;;;;;29.37;19.30;;;;;;;0.80;84.45;95499.38;5074546;28;20239;-79
2020/12/02 05:25:29;;;;;;;30.50;19.77;;;;;;;0.73;85.76;95510.13;5074912;28;20204;-77
2020/12/02 05:28:03;;;;;;;33.27;21.00;;;;;;;0.63;86.13;95497.34;5072537;28;20257;-76
2020/12/02 05:30:32;;;;;;;32.87;20.43;;;;;;;0.77;86.21;95506.44;5070370;28;20203;-77
2020/12/02 05:33:18;;;;;;;32.53;20.03;;;;;;;0.64;85.79;95514.16;5073146;28;20205;-75
2020/12/02 05:35:47;;;;;;;35.90;22.23;;;;;;;0.65;86.20;95510.72;5084158;28;20207;-76
2020/12/02 05:38:21;;;;;;;37.37;22.17;;;;;;;0.74;85.85;95510.03;5079111;28;20212;-76
2020/12/02 05:40:49;;;;;;;33.27;21.70;;;;;;;0.82;85.75;95517.81;5074038;28;20197;-75
2020/12/02 05:43:20;;;;;;;33.47;21.77;;;;;;;0.94;84.55;95511.81;5074623;28;20212;-76
2020/12/02 05:45:48;;;;;;;34.43;19.63;;;;;;;0.90;83.80;95520.56;5074235;28;20205;-76
2020/12/02 05:48:18;;;;;;;31.70;19.87;;;;;;;0.70;84.43;95518.78;5069291;28;20212;-77
2020/12/02 05:50:47;;;;;;;33.10;20.20;;;;;;;0.52;85.45;95515.91;5073832;28;20565;-76
2020/12/02 05:53:21;;;;;;;34.83;19.63;;;;;;;0.32;87.78;95519.16;5073960;28;20197;-77
2020/12/02 05:55:48;;;;;;;37.80;22.30;;;;;;;0.38;88.09;95520.44;5073267;28;20192;-76
2020/12/02 05:58:27;;;;;;;31.33;19.97;;;;;;;0.32;86.14;95529.28;5073357;28;20212;-77
2020/12/02 06:00:54;;;;;;;31.13;19.07;;;;;;;0.34;85.55;95519.84;5073243;28;20204;-76
2020/12/02 06:03:23;;;;;;;29.00;19.60;;;;;;;0.48;85.11;95523.88;5073872;28;20591;-77
2020/12/02 06:05:50;;;;;;;32.33;19.93;;;;;;;0.68;84.02;95523.97;5073776;28;20212;-76
2020/12/02 06:08:34;;;;;;;29.00;18.77;;;;;;;0.90;82.14;95519.78;5073727;28;20228;-76
2020/12/02 06:11:31;;;;;;;31.90;19.57;;;;;;;0.83;80.87;95521.16;5074557;28;20212;-77
2020/12/02 06:14:00;;;;;;;32.60;20.13;;;;;;;0.86;81.24;95519.19;5067411;28;20193;-77
2020/12/02 06:16:36;;;;;;;31.57;20.13;;;;;;;0.98;80.76;95525.03;5071510;28;20209;-77
2020/12/02 06:19:14;;;;;;;35.13;20.80;;;;;;;1.00;80.17;95520.66;5072943;28;20618;-76
2020/12/02 06:21:43;;;;;;;33.93;21.43;;;;;;;1.08;79.57;95522.59;5072117;28;20192;-76
2020/12/02 06:24:12;;;;;;;36.90;21.67;;;;;;;1.19;79.38;95527.63;5079160;28;20223;-76
2020/12/02 06:26:41;;;;;;;32.53;21.17;;;;;;;1.23;78.38;95529.00;5090412;28;20207;-77
2020/12/02 06:29:31;;;;;;;37.23;22.27;;;;;;;1.00;78.50;95524.00;5077874;28;20235;-76
2020/12/02 06:32:00;;;;;;;34.07;21.60;;;;;;;0.88;79.61;95524.16;5074163;28;20204;-76
2020/12/02 06:34:29;;;;;;;31.37;21.57;;;;;;;0.83;79.29;95516.91;5073296;28;20788;-76
2020/12/02 06:37:14;;;;;;;32.47;21.70;;;;;;;0.78;79.67;95516.44;5088462;28;20572;-76
2020/12/02 06:39:43;;;;;;;33.90;21.77;;;;;;;0.85;79.12;95521.84;5093499;28;20216;-77
2020/12/02 06:42:23;;;;;;;30.83;20.80;;;;;;;1.00;78.67;95513.03;5081239;28;20197;-75
2020/12/02 06:45:09;;;;;;;32.67;21.40;;;;;;;1.11;77.71;95523.16;5072013;28;20388;-75
2020/12/02 06:47:46;;;;;;;31.07;21.07;;;;;;;1.16;77.49;95522.78;5073124;28;20205;-77
2020/12/02 06:50:13;;;;;;;32.17;22.17;;;;;;;1.08;77.11;95517.53;5072674;28;20710;-76
2020/12/02 06:52:39;;;;;;;33.70;21.90;;;;;;;1.02;77.60;95514.53;5073088;28;20212;-77
2020/12/02 06:55:18;;;;;;;31.27;20.27;;;;;;;1.08;77.78;95520.06;5073132;28;20695;-75
2020/12/02 06:57:45;;;;;;;33.03;21.10;;;;;;;1.24;77.54;95530.59;5073130;28;20263;-77
2020/12/02 07:00:20;;;;;;;31.57;21.53;;;;;;;1.15;76.09;95521.19;5072999;28;20208;-77
2020/12/02 07:02:53;;;;;;;45.93;30.03;;;;;;;0.93;76.28;95525.41;5072614;28;20208;-76
2020/12/02 07:05:26;;;;;;;31.77;20.97;;;;;;;0.81;76.94;95528.88;5072975;28;20606;-76
2020/12/02 07:08:10;;;;;;;32.73;21.47;;;;;;;0.90;76.75;95522.31;5072462;28;20225;-75
2020/12/02 07:10:36;;;;;;;31.87;22.33;;;;;;;0.97;76.99;95518.34;5065909;28;20673;-76
2020/12/02 07:13:03;;;;;;;32.73;21.13;;;;;;;1.07;77.08;95518.44;5052803;28;20199;-76
2020/12/02 07:15:29;;;;;;;33.10;21.67;;;;;;;1.17;76.34;95515.06;5060337;28;20209;-77
2020/12/02 07:18:09;;;;;;;33.60;22.73;;;;;;;1.27;75.85;95526.09;5071368;28;20251;-77
2020/12/02 07:20:35;;;;;;;32.93;22.30;;;;;;;1.31;75.92;95524.13;5071919;28;20693;-76
2020/12/02 07:23:02;;;;;;;35.10;22.33;;;;;;;1.34;75.17;95537.38;5090008;28;20204;-76
2020/12/02 07:25:28;;;;;;;34.27;22.47;;;;;;;1.36;74.81;95530.44;5082521;28;20205;-76
2020/12/02 07:27:54;;;;;;;32.33;20.97;;;;;;;1.39;74.88;95531.91;5072004;28;20597;-76
2020/12/02 07:30:32;;;;;;;30.50;21.60;;;;;;;1.42;74.76;95524.06;5071749;28;20200;-77
2020/12/02 07:33:10;;;;;;;31.73;21.90;;;;;;;1.26;75.03;95524.50;5085723;28;20199;-76
2020/12/02 07:35:36;;;;;;;32.77;22.00;;;;;;;1.37;74.93;95518.56;5091878;28;20276;-76
2020/12/02 07:38:08;;;;;;;34.40;22.60;;;;;;;1.43;75.24;95519.81;5075914;28;20707;-76
2020/12/02 07:40:37;;;;;;;35.03;22.00;;;;;;;1.21;73.99;95526.56;5073369;28;20849;-77
2020/12/02 07:43:07;;;;;;;33.17;22.63;;;;;;;1.08;75.12;95518.34;5071972;28;20533;-76
2020/12/02 07:45:34;;;;;;;33.57;22.73;;;;;;;0.87;76.26;95509.88;5071277;28;20197;-76
2020/12/02 07:48:06;;;;;;;36.37;22.70;;;;;;;0.74;76.76;95511.75;5072071;28;20220;-75
2020/12/02 07:50:35;;;;;;;74.87;47.47;;;;;;;0.80;77.08;95511.25;5071490;28;20197;-76
2020/12/02 07:53:13;;;;;;;41.80;26.80;;;;;;;0.78;77.15;95511.38;5071711;28;20572;-76
2020/12/02 07:55:44;;;;;;;35.40;23.33;;;;;;;0.75;77.53;95509.09;5071539;28;20261;-76
2020/12/02 07:58:24;;;;;;;34.63;23.53;;;;;;;0.80;76.83;95501.13;5090487;28;20227;-77
2020/12/02 08:00:50;;;;;;;34.60;22.73;;;;;;;0.74;77.17;95504.16;5080229;28;20663;-76
2020/12/02 08:03:33;;;;;;;35.97;22.83;;;;;;;0.59;77.53;95509.44;5070939;28;20259;-76
2020/12/02 08:06:13;;;;;;;32.87;21.37;;;;;;;0.29;77.60;95499.94;5071511;28;20571;-75
2020/12/02 08:08:39;;;;;;;35.90;22.77;;;;;;;0.29;78.71;95502.47;5070413;28;20220;-76
2020/12/02 08:11:08;;;;;;;34.40;23.03;;;;;;;0.54;78.79;95495.53;5068752;28;20212;-76
2020/12/02 08:13:36;;;;;;;34.37;22.77;;;;;;;0.68;78.21;95487.69;5071721;28;20200;-76
2020/12/02 08:16:04;;;;;;;37.30;23.90;;;;;;;0.73;76.96;95488.13;5074801;28;20228;-76
2020/12/02 08:18:31;;;;;;;35.37;23.03;;;;;;;0.66;77.23;95487.00;5084793;28;20222;-77
2020/12/02 08:21:09;;;;;;;36.80;23.73;;;;;;;0.77;77.78;95479.34;5084602;28;20196;-76
2020/12/02 08:23:38;;;;;;;34.80;22.20;;;;;;;0.97;77.74;95483.66;5075963;28;20231;-77
2020/12/02 08:26:15;;;;;;;34.00;22.60;;;;;;;1.01;76.94;95477.44;5070448;28;20197;-76
2020/12/02 08:28:42;;;;;;;34.70;22.10;;;;;;;1.14;76.88;95472.22;5070732;28;20255;-76
2020/12/02 08:31:21;;;;;;;35.40;22.17;;;;;;;1.21;75.68;95465.72;5070959;28;20197;-77
2020/12/02 08:34:14;;;;;;;31.03;21.60;;;;;;;1.34;75.62;95470.63;5071340;28;20204;-76
2020/12/02 08:36:43;;;;;;;33.40;21.60;;;;;;;1.43;75.02;95469.06;5070338;28;20212;-77
2020/12/02 08:39:10;;;;;;;33.07;22.47;;;;;;;1.49;74.45;95469.41;5081368;28;20226;-76
2020/12/02 08:41:46;;;;;;;33.33;21.70;;;;;;;1.33;73.82;95467.28;5073870;28;20205;-76
2020/12/02 08:44:14;;;;;;;35.03;21.77;;;;;;;1.27;74.37;95477.13;5072181;28;20224;-77
2020/12/02 08:46:57;;;;;;;34.77;22.63;;;;;;;1.29;74.88;95477.81;5084273;28;20199;-76
2020/12/02 08:49:26;;;;;;;30.90;20.23;;;;;;;1.37;74.56;95468.63;5082197;28;20216;-75
2020/12/02 08:51:52;;;;;;;27.70;18.00;;;;;;;1.36;73.99;95469.56;5070695;28;20196;-76
2020/12/02 08:54:20;;;;;;;28.27;18.20;;;;;;;1.38;73.48;95472.78;5071233;28;20553;-76
2020/12/02 08:56:47;;;;;;;23.53;15.97;;;;;;;1.14;72.25;95484.09;5071021;28;20208;-76
2020/12/02 08:59:13;;;;;;;23.07;15.07;;;;;;;1.14;73.31;95482.38;5071417;28;20631;-77
2020/12/02 09:01:40;;;;;;;22.63;14.87;;;;;;;1.25;73.12;95476.44;5070663;28;20205;-77
2020/12/02 09:04:06;;;;;;;22.77;14.97;;;;;;;1.37;72.93;95475.44;5070948;28;20278;-76
2020/12/02 09:06:32;;;;;;;16.97;12.17;;;;;;;1.45;72.19;95475.63;5070635;28;20204;-76
2020/12/02 09:08:59;;;;;;;22.63;13.03;;;;;;;1.76;93.66;95468.88;5070763;28;20231;-74
2020/12/02 09:11:27;;;;;;;18.03;12.57;;;;;;;2.78;100.00;95456.00;5070466;28;20197;-75
2020/12/02 09:13:54;;;;;;;18.70;12.53;;;;;;;3.52;83.13;95459.72;5070519;28;20223;-75
2020/12/02 09:16:24;;;;;;;17.43;13.50;;;;;;;3.65;69.50;95460.25;5071271;28;20671;-76
2020/12/02 09:18:51;;;;;;;17.87;12.43;;;;;;;3.13;65.05;95465.66;5071405;28;20251;-75
2020/12/02 09:21:18;;;;;;;16.87;12.77;;;;;;;2.66;66.93;95464.69;5071570;28;20720;-77
2020/12/02 09:23:44;;;;;;;21.50;14.33;;;;;;;2.15;68.62;95461.44;5074372;28;20227;-78
2020/12/02 09:26:09;;;;;;;21.73;15.93;;;;;;;2.15;69.95;95463.97;5091909;28;20204;-78
2020/12/02 09:28:35;;;;;;;25.57;15.83;;;;;;;2.20;70.80;95452.50;5092088;28;20289;-77
2020/12/02 09:31:02;;;;;;;23.37;16.57;;;;;;;2.20;70.26;95464.41;5091875;28;20204;-76
2020/12/02 09:33:28;;;;;;;24.57;16.80;;;;;;;2.19;71.09;95450.91;5091082;28;20196;-76
2020/12/02 09:35:54;;;;;;;29.33;18.87;;;;;;;2.12;70.85;95456.63;5091121;28;20196;-76
2020/12/02 09:38:21;;;;;;;28.00;18.47;;;;;;;1.95;70.63;95458.00;5091522;28;20216;-77
2020/12/02 09:40:47;;;;;;;24.90;17.43;;;;;;;1.85;71.43;95454.63;5090748;28;20200;-76
2020/12/02 09:43:42;;;;;;;25.43;16.50;;;;;;;1.86;70.97;95451.97;5091049;28;20204;-76
2020/12/02 09:46:14;;;;;;;20.10;15.20;;;;;;;1.92;71.01;95445.59;5090605;28;20204;-77
2020/12/02 09:48:40;;;;;;;21.90;14.87;;;;;;;1.62;71.51;95442.09;5090970;28;20676;-77
2020/12/02 09:51:18;;;;;;;20.37;14.97;;;;;;;1.66;71.25;95442.66;5090593;28;20215;-77
2020/12/02 09:53:44;;;;;;;22.97;14.37;;;;;;;1.78;71.25;95434.03;5090826;28;20210;-77
2020/12/02 09:56:11;;;;;;;18.67;13.20;;;;;;;1.91;71.23;95431.28;5090664;28;20200;-77
2020/12/02 09:58:38;;;;;;;18.33;13.43;;;;;;;1.85;69.46;95427.53;5091999;28;20244;-77
2020/12/02 10:01:15;;;;;;;19.53;13.63;;;;;;;1.42;70.36;95425.16;5094460;28;20200;-77
2020/12/02 10:04:10;;;;;;;20.13;14.33;;;;;;;1.30;72.00;95429.50;5094344;28;20230;-76
2020/12/02 10:07:03;;;;;;;22.67;15.50;;;;;;;1.48;72.38;95414.53;5084523;28;20212;-77
2020/12/02 10:09:47;;;;;;;21.77;15.67;;;;;;;1.47;71.54;95422.25;5074060;28;20225;-77
2020/12/02 10:12:19;;;;;;;24.43;16.57;;;;;;;1.41;71.88;95425.28;5073909;28;20212;-76
2020/12/02 10:15:12;;;;;;;26.10;17.30;;;;;;;1.37;72.33;95422.19;5074032;28;20201;-76
2020/12/02 10:18:02;;;;;;;27.30;16.93;;;;;;;1.52;72.70;95412.53;5071273;28;20204;-77
2020/12/02 10:20:36;;;;;;;64.80;43.53;;;;;;;1.42;72.30;95417.53;5074082;28;20235;-76
2020/12/02 10:23:15;;;;;;;26.63;17.40;;;;;;;1.20;72.35;95413.41;5073890;28;20211;-76
2020/12/02 10:26:00;;;;;;;23.70;16.43;;;;;;;1.10;72.75;95404.94;5072499;28;20197;-77
2020/12/02 10:28:31;;;;;;;23.60;16.13;;;;;;;1.23;72.89;95402.22;5073264;28;20260;-76
2020/12/02 10:31:14;;;;;;;22.83;16.13;;;;;;;1.38;72.94;95395.88;5072614;28;20235;-77
2020/12/02 10:34:00;;;;;;;20.03;14.03;;;;;;;1.53;71.24;95391.31;5073764;28;20205;-77
2020/12/02 10:36:28;;;;;;;20.47;14.73;;;;;;;1.62;70.59;95396.44;5073416;28;20424;-77
2020/12/02 10:38:57;;;;;;;22.97;15.27;;;;;;;1.43;70.02;95398.06;5074122;28;20787;-76
2020/12/02 10:41:33;;;;;;;23.13;15.40;;;;;;;1.47;71.30;95390.06;5073104;28;20201;-75
2020/12/02 10:44:13;;;;;;;20.57;13.93;;;;;;;1.54;70.60;95382.78;5073450;28;20225;-77
2020/12/02 10:46:57;;;;;;;20.67;13.93;;;;;;;1.50;70.29;95379.69;5073222;28;20205;-76
2020/12/02 10:49:28;;;;;;;23.07;14.40;;;;;;;1.52;70.37;95375.28;5073241;28;20221;-76
2020/12/02 10:51:56;;;;;;;21.00;14.70;;;;;;;1.62;70.80;95378.66;5073094;28;20664;-76
2020/12/02 10:54:24;;;;;;;20.83;14.40;;;;;;;1.69;70.92;95374.69;5073406;28;20208;-77
2020/12/02 10:56:55;;;;;;;31.23;22.30;;;;;;;1.75;70.97;95365.75;5077086;28;20199;-76
2020/12/02 10:59:23;;;;;;;41.07;28.03;;;;;;;1.86;70.48;95360.59;5093282;28;20227;-76
2020/12/02 11:01:49;;;;;;;25.53;18.20;;;;;;;1.89;70.07;95357.81;5076367;28;20201;-76
2020/12/02 11:04:19;;;;;;;22.83;16.50;;;;;;;1.96;70.17;95350.47;5073379;28;20225;-77
2020/12/02 11:06:59;;;;;;;23.57;17.40;;;;;;;1.88;69.43;95352.84;5073646;28;20242;-77
2020/12/02 11:09:40;;;;;;;22.27;15.93;;;;;;;1.77;70.33;95342.78;5072386;28;20228;-77
2020/12/02 11:12:23;;;;;;;23.23;15.50;;;;;;;1.77;70.34;95341.06;5073340;28;20567;-77
2020/12/02 11:15:08;;;;;;;23.90;16.33;;;;;;;1.85;70.29;95337.88;5074680;28;20200;-76
2020/12/02 11:17:50;;;;;;;23.33;16.10;;;;;;;1.93;69.90;95331.22;5078145;28;20214;-76
2020/12/02 11:20:20;;;;;;;22.87;16.07;;;;;;;1.94;69.43;95335.34;5074160;28;20209;-76
2020/12/02 11:23:04;;;;;;;24.33;17.83;;;;;;;1.95;69.76;95328.53;5075008;28;20258;-76
2020/12/02 11:25:40;;;;;;;24.77;16.47;;;;;;;2.01;69.58;95317.88;5077985;28;20229;-77
2020/12/02 11:28:07;;;;;;;23.23;16.83;;;;;;;2.01;69.68;95326.28;5072423;28;20715;-77
2020/12/02 11:30:37;;;;;;;22.67;15.83;;;;;;;2.08;69.73;95317.22;5072908;28;20204;-77
2020/12/02 11:33:46;;;;;;;23.40;16.23;;;;;;;2.08;69.25;95312.16;5072959;28;20208;-77
2020/12/02 11:36:29;;;;;;;22.77;15.57;;;;;;;2.05;69.53;95306.53;5073156;28;20205;-77
2020/12/02 11:39:11;;;;;;;24.17;15.83;;;;;;;1.97;69.67;95302.09;5073121;28;20579;-77
2020/12/02 11:41:46;;;;;;;25.07;15.90;;;;;;;2.01;69.40;95298.38;5072796;28;20204;-77